x

Bw Pioneer Buoy - Walker Ridge 249 (42360) Wave Buoy

6:00pm - Mon 29th Sep 2014 All times are UTC.

  • Sig Wave height 2.3ft
  • Peak Period 5s
  • Wind
    9mph, 13mph gusts
  • Sea Temp 85°f
  • Air Temp 83°f
  • Sea Pressure 1011.9mb

More Historic Weather Station data

Upgrade to MSW Pro to gain access to the past 30 days of data for over 8000 Wavebouys and Weather Stations around the globe.

Join Pro

Comparision Forecast

View Surf forecast
   
Mon 09/29 6:00pm 2.5ft 5s 9 13 mph 1011.9mb 85f 83f
5:00pm 2.5ft 6s 4 7 mph 1012.5mb 85f 83f
4:00pm 3ft 6s 4 7 mph 1012.8mb 85f 84f
3:00pm 3ft 6s 4 7 mph 1012.8mb 85f 83f
2:00pm 3ft 7s 7 9 mph 1012.6mb 84f 83f
1:00pm 3ft 6s 4 7 mph 1012.1mb 85f 83f
12:00pm 3ft 6s 9 13 mph 1011.4mb 85f 82f
11:00am 3ft 7s 9 13 mph 1011mb 85f 82f
10:00am 2.5ft 7s 11 16 mph 1010.9mb 85f 82f
9:00am 3ft 6s 9 11 mph 1011mb 85f 81f
8:00am 3ft 7s 9 13 mph 1011.5mb 85f 82f
7:00am 3ft 7s 9 13 mph 1011.6mb 85f 82f
6:00am 3ft 7s 9 13 mph 1011.7mb 86f 81f
5:00am 3.5ft 7s 11 13 mph 1012.4mb 86f 81f
4:00am 3.5ft 7s 11 16 mph 1013.1mb 86f 81f
3:00am 3.5ft 7s 7 11 mph 1013.2mb 86f 81f
2:00am 3.5ft 7s 18 22 mph 1012.5mb 86f 81f
1:00am 3.5ft 7s 22 27 mph 1012.5mb 86f 80f
12:00am 3.5ft 8s 13 18 mph 1012.6mb 86f 80f
Sun 09/28 11:00pm 4ft 7s 16 20 mph 1012.2mb 86f 81f
10:00pm 4ft 7s 18 22 mph 1012.5mb 86f 80f
9:00pm 3.5ft 8s 20 29 mph 1012.5mb 86f 79f
8:00pm 4ft 8s 9 16 mph 1012.1mb 87f 80f
7:00pm 4.5ft 7s 4 9 mph 1012.5mb 87f 83f
6:00pm 4.5ft 7s 9 13 mph 1013.3mb 87f 84f
5:00pm 4.5ft 8s 11 16 mph 1014.1mb 86f 84f
4:00pm 4.5ft 8s 13 18 mph 1014.1mb 86f 84f
3:00pm 4ft 8s 13 18 mph 1013.9mb 86f 84f
2:00pm 4ft 8s 16 25 mph 1013.2mb 86f 84f
1:00pm 3ft 6s 20 27 mph 1012.6mb 86f 83f
12:00pm 3ft 7s 18 22 mph 1012.1mb 86f 83f
11:00am 3ft 7s 13 18 mph 1012.1mb 86f 83f
10:00am 3ft 7s 13 20 mph 1011.7mb 86f 83f
9:00am 3.5ft 7s 18 22 mph 1011.5mb 86f 83f
8:00am 3.5ft 7s 20 25 mph 1012.1mb 86f 83f
7:00am 3ft 6s 18 22 mph 1012.5mb 86f 83f
6:00am 3ft 7s 20 25 mph 1013mb 86f 83f
5:00am 3.5ft 7s 16 18 mph 1013.1mb 86f 83f
4:00am 3.5ft 7s 16 20 mph 1013.7mb 86f 83f
3:00am 3.5ft 7s 16 20 mph 1013.5mb 86f 83f
2:00am 3.5ft 6s 13 18 mph 1013mb 86f 83f
1:00am 3.5ft 6s 13 16 mph 1012.6mb 86f 83f
12:00am 3.5ft 7s 11 16 mph 1012.2mb 86f 83f
Sat 09/27 11:00pm 3.5ft 6s 11 13 mph 1011.9mb 87f 82f
10:00pm 3.5ft 7s 9 13 mph 1011.6mb 86f 82f
9:00pm 3.5ft 7s 13 18 mph 1011.5mb 86f 82f
8:00pm 3.5ft 7s 11 16 mph 1011.9mb 86f 82f
7:00pm 3.5ft 6s 11 16 mph 1012.7mb 86f 82f
6:00pm 4ft 6s 9 13 mph 1013.5mb 86f 81f
5:00pm 4ft 6s 11 16 mph 1014.4mb 86f 80f
4:00pm 4.5ft 6s 18 25 mph 1014.1mb 86f 80f
3:00pm 4.5ft 6s 16 20 mph 1014.3mb 86f 79f
2:00pm 4.5ft 6s 13 20 mph 1013.6mb 85f 79f
1:00pm 4.5ft 6s 20 27 mph 1013.7mb 85f 77f
12:00pm 4.5ft 5s 13 18 mph 1013.3mb 86f 81f
11:00am 4.5ft 7s 27 31 mph 1012.8mb 86f 80f
10:00am 4.5ft 6s 25 31 mph 1012mb 85f 83f
9:00am 5ft 7s 22 27 mph 1012.2mb 85f 82f
8:00am 5ft 6s 27 34 mph 1012.5mb 86f 82f
7:00am 5ft 6s 29 38 mph 1012.7mb 86f 82f
6:00am 5ft 7s 25 34 mph 1013.2mb 85f 79f
5:00am 5ft 7s 27 34 mph 1013.3mb 85f 82f
4:00am 5.5ft 7s 27 36 mph 1013.8mb 85f 82f
3:00am 5.5ft 8s 27 34 mph 1013.9mb 85f 82f
2:00am 6ft 7s 27 36 mph 1013.9mb 85f 82f
1:00am 5ft 7s 25 34 mph 1013.5mb 85f 81f
12:00am 6ft 7s 20 29 mph 1013.6mb 85f 81f
Fri 09/26 11:00pm 7ft 8s 18 27 mph 1013.5mb 85f 80f
10:00pm 7ft 8s 20 27 mph 1013.5mb - 78f
9:00pm 6.5ft 8s 27 36 mph 1014.1mb 85f 79f
8:00pm 7ft 8s 16 29 mph 1014.5mb 86f 77f
7:00pm 8ft 7s 22 36 mph 1015mb 86f 77f
6:00pm 7ft 7s 29 45 mph 1015.2mb 86f 78f
5:00pm 7ft 7s 29 36 mph 1015.6mb 86f 80f
4:00pm 7ft 8s 27 34 mph 1015.6mb 86f 80f
3:00pm 6.5ft 8s 25 34 mph 1015.4mb 86f 80f
2:00pm 7ft 8s 25 31 mph 1014.9mb 86f 80f
1:00pm 6.5ft 7s 22 31 mph 1014.7mb 86f 82f
12:00pm 6ft 8s 20 27 mph 1014.1mb 86f 82f
11:00am 6.5ft 7s 22 29 mph 1014.1mb 86f 83f